Time;durP1;ratioP1;P1;durP2;ratioP2;P2;SDS_P1;SDS_P2;PMS_P1;PMS_P2;Temp;Humidity;BMP_temperature;BMP_pressure;BME280_temperature;BME280_humidity;BME280_pressure;Samples;Min_cycle;Max_cycle;Signal;HPM_P1;HPM_P2
2023/07/25 00:01:29;;;;;;;9.80;1.10;;;;;;;;;;6060806;23;20023;-56
2023/07/25 00:03:56;;;;;;;2.35;0.77;;;;;;;;;;6059827;23;20023;-56
2023/07/25 00:06:37;;;;;;;5.95;1.00;;;;;;;;;;6059465;23;20532;-56
2023/07/25 00:09:04;;;;;;;5.57;0.93;;;;;;;;;;6060986;23;20031;-61
2023/07/25 00:11:38;;;;;;;2.88;1.10;;;;;;;;;;6060843;23;20027;-64
2023/07/25 00:14:05;;;;;;;4.50;1.00;;;;;;;;;;6060561;23;20027;-64
2023/07/25 00:16:33;;;;;;;5.50;0.90;;;;;;;;;;6060587;23;20023;-64
2023/07/25 00:19:06;;;;;;;8.23;1.15;;;;;;;;;;6057991;23;20030;-64
2023/07/25 00:21:33;;;;;;;4.15;1.00;;;;;;;;;;6059958;23;20038;-64
2023/07/25 00:24:01;;;;;;;6.10;0.70;;;;;;;;;;6060928;23;20023;-64
2023/07/25 00:26:35;;;;;;;2.90;0.77;;;;;;;;;;6060558;23;20027;-66
2023/07/25 00:29:02;;;;;;;20.33;1.60;;;;;;;;;;6059913;23;20023;-66
2023/07/25 00:31:36;;;;;;;6.45;0.95;;;;;;;;;;6059745;23;20173;-66
2023/07/25 00:34:06;;;;;;;13.60;1.35;;;;;;;;;;6060805;23;20027;-66
2023/07/25 00:36:33;;;;;;;6.18;1.38;;;;;;;;;;6060201;23;20090;-73
2023/07/25 00:39:07;;;;;;;11.88;1.60;;;;;;;;;;6059981;23;20480;-61
2023/07/25 00:41:35;;;;;;;5.82;1.10;;;;;;;;;;6059602;23;20101;-61
2023/07/25 00:44:08;;;;;;;7.80;1.02;;;;;;;;;;6061162;23;20026;-61
2023/07/25 00:46:36;;;;;;;8.40;1.55;;;;;;;;;;6061839;23;20026;-61
2023/07/25 00:49:05;;;;;;;7.30;1.13;;;;;;;;;;6061321;23;20129;-61
2023/07/25 00:51:38;;;;;;;4.05;1.00;;;;;;;;;;6060431;23;20031;-61
2023/07/25 00:54:06;;;;;;;10.30;1.23;;;;;;;;;;6063671;23;20424;-61
2023/07/25 00:56:33;;;;;;;6.30;1.65;;;;;;;;;;6061075;23;20049;-61
2023/07/25 00:59:13;;;;;;;4.82;1.20;;;;;;;;;;6060881;23;20090;-61
2023/07/25 01:01:40;;;;;;;8.50;1.13;;;;;;;;;;6061867;23;20050;-61
2023/07/25 01:04:21;;;;;;;11.18;1.60;;;;;;;;;;6061888;23;20033;-65
2023/07/25 01:06:48;;;;;;;12.10;1.40;;;;;;;;;;6061371;23;20023;-53
2023/07/25 01:09:35;;;;;;;8.65;1.38;;;;;;;;;;6061584;23;20031;-73
2023/07/25 01:12:03;;;;;;;7.38;1.42;;;;;;;;;;6060617;23;20034;-73
2023/07/25 01:14:38;;;;;;;11.88;1.55;;;;;;;;;;6061363;23;20023;-73
2023/07/25 01:17:16;;;;;;;9.88;1.38;;;;;;;;;;6061241;23;20341;-75
2023/07/25 01:19:50;;;;;;;3.75;1.60;;;;;;;;;;6061415;23;20398;-72
2023/07/25 01:22:18;;;;;;;7.63;1.67;;;;;;;;;;6062140;23;20033;-73
2023/07/25 01:24:47;;;;;;;9.95;1.15;;;;;;;;;;6062408;23;20081;-66
2023/07/25 01:27:21;;;;;;;6.53;1.40;;;;;;;;;;6061250;23;20033;-65
2023/07/25 01:29:48;;;;;;;7.28;1.83;;;;;;;;;;6061398;23;20317;-66
2023/07/25 01:32:15;;;;;;;3.08;1.27;;;;;;;;;;6061787;23;20027;-65
2023/07/25 01:34:49;;;;;;;3.53;1.40;;;;;;;;;;6060964;23;20031;-59
2023/07/25 01:37:16;;;;;;;5.45;2.05;;;;;;;;;;6062443;23;20031;-59
2023/07/25 01:39:50;;;;;;;9.52;1.58;;;;;;;;;;6060409;23;20030;-59
2023/07/25 01:42:18;;;;;;;5.72;1.60;;;;;;;;;;6061723;23;20031;-58
2023/07/25 01:44:45;;;;;;;6.55;1.58;;;;;;;;;;6060783;23;20086;-59
2023/07/25 01:47:18;;;;;;;12.93;2.25;;;;;;;;;;6062579;23;20090;-59
2023/07/25 01:49:45;;;;;;;9.75;2.50;;;;;;;;;;6059893;23;20026;-59
2023/07/25 01:52:20;;;;;;;6.00;1.80;;;;;;;;;;6062617;23;20022;-76
2023/07/25 01:54:47;;;;;;;;;;;;;;;;;;6061341;23;20027;-76
2023/07/25 01:57:14;;;;;;;8.80;1.80;;;;;;;;;;6061047;23;19921;-76
2023/07/25 01:59:49;;;;;;;9.88;2.30;;;;;;;;;;6061703;23;20019;-76
2023/07/25 02:02:16;;;;;;;9.30;2.30;;;;;;;;;;6061407;23;20364;-58
2023/07/25 02:04:44;;;;;;;6.03;2.00;;;;;;;;;;6057691;23;20045;-55
2023/07/25 02:07:24;;;;;;;10.02;1.98;;;;;;;;;;6060675;23;20023;-52
2023/07/25 02:09:52;;;;;;;6.93;1.80;;;;;;;;;;6060988;23;20029;-56
2023/07/25 02:12:26;;;;;;;9.10;2.22;;;;;;;;;;6061329;23;20421;-58
2023/07/25 02:14:54;;;;;;;18.35;2.42;;;;;;;;;;6061694;23;20079;-53
2023/07/25 02:17:21;;;;;;;6.32;2.03;;;;;;;;;;6060882;23;20031;-57
2023/07/25 02:19:55;;;;;;;10.40;2.00;;;;;;;;;;6061679;23;20023;-61
2023/07/25 02:22:23;;;;;;;4.43;2.10;;;;;;;;;;6061785;23;20326;-61
2023/07/25 02:24:50;;;;;;;5.78;1.70;;;;;;;;;;6058717;23;20058;-61
2023/07/25 02:27:23;;;;;;;6.07;2.00;;;;;;;;;;6061014;23;20026;-61
2023/07/25 02:29:50;;;;;;;11.18;2.30;;;;;;;;;;6060736;23;20026;-60
2023/07/25 02:32:24;;;;;;;7.05;1.90;;;;;;;;;;6060537;23;20030;-65
2023/07/25 02:34:52;;;;;;;10.48;2.20;;;;;;;;;;6060550;23;20027;-79
2023/07/25 02:37:19;;;;;;;11.00;1.88;;;;;;;;;;6061748;23;20094;-80
2023/07/25 02:39:53;;;;;;;7.00;1.83;;;;;;;;;;6060018;23;20119;-79
2023/07/25 02:42:21;;;;;;;3.53;1.92;;;;;;;;;;6059855;23;20022;-80
2023/07/25 02:44:54;;;;;;;20.05;2.63;;;;;;;;;;6062031;23;20026;-79
2023/07/25 02:47:28;;;;;;;7.28;2.05;;;;;;;;;;6059909;23;20078;-79
2023/07/25 02:50:02;;;;;;;5.70;2.00;;;;;;;;;;6061273;23;20027;-65
2023/07/25 02:52:36;;;;;;;12.60;2.33;;;;;;;;;;6061764;23;20026;-65
2023/07/25 02:55:10;;;;;;;13.30;2.25;;;;;;;;;;6060404;23;20385;-65
2023/07/25 02:57:38;;;;;;;11.13;2.30;;;;;;;;;;6061031;23;20030;-65
2023/07/25 03:00:06;;;;;;;4.05;2.17;;;;;;;;;;6060990;23;20026;-57
2023/07/25 03:02:39;;;;;;;5.07;2.03;;;;;;;;;;6059186;23;20468;-65
2023/07/25 03:05:07;;;;;;;;;;;;;;;;;;6061212;23;20105;-65
2023/07/25 03:07:47;;;;;;;9.07;2.72;;;;;;;;;;6054363;23;19921;-65
2023/07/25 03:10:14;;;;;;;5.70;2.10;;;;;;;;;;6060961;23;20026;-65
2023/07/25 03:12:48;;;;;;;11.25;2.47;;;;;;;;;;6060318;23;20027;-65
2023/07/25 03:15:16;;;;;;;11.90;2.55;;;;;;;;;;6060105;23;20022;-65
2023/07/25 03:17:43;;;;;;;6.85;2.15;;;;;;;;;;6056353;23;20026;-60
2023/07/25 03:20:17;;;;;;;8.52;2.20;;;;;;;;;;6061627;23;20086;-58
2023/07/25 03:22:44;;;;;;;14.07;3.78;;;;;;;;;;6060176;23;20364;-60
2023/07/25 03:25:17;;;;;;;9.68;2.80;;;;;;;;;;6059997;23;20030;-60
2023/07/25 03:27:44;;;;;;;10.15;2.67;;;;;;;;;;6057950;23;20026;-58
2023/07/25 03:30:12;;;;;;;5.40;2.40;;;;;;;;;;6055798;23;20651;-79
2023/07/25 03:32:45;;;;;;;14.40;2.50;;;;;;;;;;6059983;23;20026;-79
2023/07/25 03:35:12;;;;;;;10.27;2.70;;;;;;;;;;6061116;23;20034;-80
2023/07/25 03:37:46;;;;;;;13.52;2.63;;;;;;;;;;6059249;23;20031;-79
2023/07/25 03:40:13;;;;;;;7.47;2.53;;;;;;;;;;6060253;23;20019;-79
2023/07/25 03:42:40;;;;;;;5.10;2.88;;;;;;;;;;6059814;23;20401;-79
2023/07/25 03:45:14;;;;;;;10.40;2.60;;;;;;;;;;6062101;23;20089;-60
2023/07/25 03:47:41;;;;;;;10.13;3.00;;;;;;;;;;6059289;23;20416;-59
2023/07/25 03:50:15;;;;;;;13.65;2.70;;;;;;;;;;6060752;23;20022;-59
2023/07/25 03:52:42;;;;;;;9.27;2.75;;;;;;;;;;6059753;23;20409;-59
2023/07/25 03:55:10;;;;;;;9.23;2.58;;;;;;;;;;6059800;23;20023;-77
2023/07/25 03:57:44;;;;;;;9.75;2.60;;;;;;;;;;6060101;23;20335;-66
2023/07/25 04:00:31;;;;;;;5.45;2.33;;;;;;;;;;6059616;23;20055;-61
2023/07/25 04:03:31;;;;;;;9.07;2.65;;;;;;;;;;6060188;23;20034;-61
2023/07/25 04:06:19;;;;;;;17.00;2.58;;;;;;;;;;6058983;23;20050;-62
2023/07/25 04:09:12;;;;;;;11.00;2.80;;;;;;;;;;6058444;23;20481;-61
2023/07/25 04:12:00;;;;;;;8.52;2.85;;;;;;;;;;6060534;23;20023;-62
2023/07/25 04:14:54;;;;;;;10.88;3.45;;;;;;;;;;6060115;23;20027;-54
2023/07/25 04:17:41;;;;;;;7.00;2.53;;;;;;;;;;6059885;23;20074;-55
2023/07/25 04:20:35;;;;;;;12.55;2.67;;;;;;;;;;6061440;23;20409;-55
2023/07/25 04:23:27;;;;;;;12.85;2.90;;;;;;;;;;6061922;23;20042;-58
2023/07/25 04:26:26;;;;;;;12.02;3.72;;;;;;;;;;6062338;23;20031;-63
2023/07/25 04:29:13;;;;;;;17.65;3.97;;;;;;;;;;6062065;23;20023;-58
2023/07/25 04:32:08;;;;;;;17.25;4.15;;;;;;;;;;6060691;23;20019;-58
2023/07/25 04:34:55;;;;;;;13.32;4.35;;;;;;;;;;6061603;23;20031;-60
2023/07/25 04:37:49;;;;;;;23.40;5.05;;;;;;;;;;6061068;23;20217;-59
2023/07/25 04:40:37;;;;;;;12.27;4.30;;;;;;;;;;6061542;23;20023;-60
2023/07/25 04:43:30;;;;;;;20.55;5.43;;;;;;;;;;6062211;23;20023;-62
2023/07/25 04:46:25;;;;;;;23.33;5.22;;;;;;;;;;6060565;23;20389;-61
2023/07/25 04:49:12;;;;;;;25.52;5.13;;;;;;;;;;6062113;23;20029;-61
2023/07/25 04:52:05;;;;;;;21.92;5.03;;;;;;;;;;6062089;23;20027;-60
2023/07/25 04:54:57;;;;;;;17.35;5.00;;;;;;;;;;6060066;23;20083;-78
2023/07/25 04:57:46;;;;;;;23.45;5.13;;;;;;;;;;6061430;23;20094;-57
2023/07/25 05:00:34;;;;;;;22.48;4.95;;;;;;;;;;6060760;23;20030;-59
2023/07/25 05:03:42;;;;;;;16.90;5.25;;;;;;;;;;6059678;23;20022;-59
2023/07/25 05:06:36;;;;;;;22.58;4.88;;;;;;;;;;6059124;23;20559;-59
2023/07/25 05:09:30;;;;;;;24.60;4.97;;;;;;;;;;6060317;23;20082;-57
2023/07/25 05:12:28;;;;;;;23.20;4.60;;;;;;;;;;6061061;23;20027;-60
2023/07/25 05:15:28;;;;;;;19.88;4.65;;;;;;;;;;6058990;23;20485;-60
2023/07/25 05:18:16;;;;;;;17.67;4.55;;;;;;;;;;6062161;23;20425;-60
2023/07/25 05:21:09;;;;;;;24.55;4.97;;;;;;;;;;6061247;23;20026;-58
2023/07/25 05:23:57;;;;;;;21.70;4.63;;;;;;;;;;6060648;23;20414;-66
2023/07/25 05:26:51;;;;;;;23.23;4.68;;;;;;;;;;6060232;23;20045;-66
2023/07/25 05:29:38;;;;;;;20.95;5.00;;;;;;;;;;6062379;23;20086;-66
2023/07/25 05:32:32;;;;;;;13.25;4.55;;;;;;;;;;6059145;23;20027;-65
2023/07/25 05:35:19;;;;;;;21.10;4.57;;;;;;;;;;6060544;23;20070;-66
2023/07/25 05:38:14;;;;;;;21.13;5.03;;;;;;;;;;6059610;23;20504;-65
2023/07/25 05:41:01;;;;;;;27.98;4.30;;;;;;;;;;6060610;23;20027;-64
2023/07/25 05:43:56;;;;;;;25.10;4.45;;;;;;;;;;6060522;23;20030;-64
2023/07/25 05:46:43;;;;;;;26.92;5.45;;;;;;;;;;6060835;23;20029;-64
2023/07/25 05:49:36;;;;;;;30.17;4.97;;;;;;;;;;6060171;23;20030;-76
2023/07/25 05:52:27;;;;;;;23.90;4.68;;;;;;;;;;6060839;23;20051;-60
2023/07/25 05:55:25;;;;;;;33.80;4.95;;;;;;;;;;6060620;23;20023;-59
2023/07/25 05:58:27;;;;;;;26.08;4.38;;;;;;;;;;6061106;23;20125;-59
2023/07/25 06:01:27;;;;;;;14.98;4.70;;;;;;;;;;6060372;23;20023;-59
2023/07/25 06:04:34;;;;;;;24.25;4.82;;;;;;;;;;6057535;23;20938;-59
2023/07/25 06:07:27;;;;;;;18.38;4.35;;;;;;;;;;6058930;23;20042;-64
2023/07/25 06:10:21;;;;;;;23.23;5.05;;;;;;;;;;6058700;23;20079;-65
2023/07/25 06:13:15;;;;;;;21.50;5.18;;;;;;;;;;6059287;23;20075;-65
2023/07/25 06:15:43;;;;;;;;;;;;;;;;;;6059838;23;20109;-64
2023/07/25 06:18:16;;;;;;;17.58;4.05;;;;;;;;;;6061929;23;20222;-59
2023/07/25 06:20:44;;;;;;;24.02;4.55;;;;;;;;;;6060691;23;20030;-57
2023/07/25 06:23:11;;;;;;;21.85;4.72;;;;;;;;;;6062120;23;20365;-57
2023/07/25 06:25:44;;;;;;;19.52;4.38;;;;;;;;;;6062254;23;20030;-59
2023/07/25 06:28:14;;;;;;;24.15;4.40;;;;;;;;;;6059716;23;20102;-58
2023/07/25 06:30:49;;;;;;;18.48;4.10;;;;;;;;;;6058700;23;20078;-59
2023/07/25 06:33:16;;;;;;;;;;;;;;;;;;6058527;23;20433;-58
2023/07/25 06:35:43;;;;;;;18.02;3.70;;;;;;;;;;6061838;23;19922;-55
2023/07/25 06:38:36;;;;;;;20.15;4.28;;;;;;;;;;6061490;23;20078;-58
2023/07/25 06:41:24;;;;;;;14.35;3.42;;;;;;;;;;6060139;23;20038;-64
2023/07/25 06:44:19;;;;;;;17.35;3.40;;;;;;;;;;6059184;23;20483;-64
2023/07/25 06:47:05;;;;;;;20.67;4.00;;;;;;;;;;6060559;23;20045;-64
2023/07/25 06:50:00;;;;;;;20.98;4.35;;;;;;;;;;6061612;23;20022;-65
2023/07/25 06:52:53;;;;;;;16.98;4.18;;;;;;;;;;6059714;23;20026;-64
2023/07/25 06:55:47;;;;;;;25.35;4.20;;;;;;;;;;6061349;23;20027;-61
2023/07/25 06:58:42;;;;;;;16.23;4.15;;;;;;;;;;6059115;23;20027;-75
2023/07/25 07:01:29;;;;;;;15.52;4.13;;;;;;;;;;6061042;23;20090;-74
2023/07/25 07:04:29;;;;;;;17.90;3.35;;;;;;;;;;6060723;23;20025;-74
2023/07/25 07:07:17;;;;;;;14.02;3.42;;;;;;;;;;6057402;23;20388;-73
2023/07/25 07:10:10;;;;;;;19.65;3.85;;;;;;;;;;6056408;23;20094;-72
2023/07/25 07:12:58;;;;;;;20.83;4.50;;;;;;;;;;6057265;23;20027;-64
2023/07/25 07:15:51;;;;;;;14.48;4.05;;;;;;;;;;6059157;23;20094;-53
2023/07/25 07:18:38;;;;;;;17.40;4.30;;;;;;;;;;6059976;23;20031;-55
2023/07/25 07:21:32;;;;;;;14.07;4.10;;;;;;;;;;6058514;23;20023;-56
2023/07/25 07:24:20;;;;;;;22.10;4.47;;;;;;;;;;6058746;23;20027;-54
2023/07/25 07:27:13;;;;;;;16.58;4.63;;;;;;;;;;6058922;23;20247;-56
2023/07/25 07:30:01;;;;;;;15.13;4.30;;;;;;;;;;6059160;23;20030;-56
2023/07/25 07:32:56;;;;;;;17.95;3.58;;;;;;;;;;6058357;23;20476;-63
2023/07/25 07:35:43;;;;;;;20.40;4.25;;;;;;;;;;6058978;23;20082;-70
2023/07/25 07:38:36;;;;;;;20.23;4.80;;;;;;;;;;6059337;23;20535;-69
2023/07/25 07:41:24;;;;;;;13.43;3.47;;;;;;;;;;6060033;23;20025;-70
2023/07/25 07:44:17;;;;;;;17.63;4.13;;;;;;;;;;6059235;23;20027;-70
2023/07/25 07:47:11;;;;;;;19.63;4.85;;;;;;;;;;6060589;23;20078;-71
2023/07/25 07:50:05;;;;;;;16.63;3.97;;;;;;;;;;6061037;23;20074;-60
2023/07/25 07:52:53;;;;;;;16.90;3.70;;;;;;;;;;6060212;23;20030;-59
2023/07/25 07:55:46;;;;;;;24.02;4.93;;;;;;;;;;6060439;23;20087;-59
2023/07/25 07:58:36;;;;;;;19.95;5.13;;;;;;;;;;6060251;23;20031;-59
2023/07/25 08:01:31;;;;;;;22.02;4.78;;;;;;;;;;6059458;23;20025;-55
2023/07/25 08:04:25;;;;;;;29.73;5.40;;;;;;;;;;6059247;23;20065;-53
2023/07/25 08:07:25;;;;;;;26.17;4.70;;;;;;;;;;6059616;23;20063;-56
2023/07/25 08:10:13;;;;;;;18.60;4.45;;;;;;;;;;6059594;23;20019;-54
2023/07/25 08:13:06;;;;;;;21.85;4.65;;;;;;;;;;6059683;23;20027;-53
2023/07/25 08:15:54;;;;;;;20.58;4.80;;;;;;;;;;6058851;23;20019;-52
2023/07/25 08:18:49;;;;;;;20.73;4.55;;;;;;;;;;6061185;23;20501;-60
2023/07/25 08:21:36;;;;;;;14.40;4.10;;;;;;;;;;6060596;23;20074;-60
2023/07/25 08:24:32;;;;;;;20.30;3.97;;;;;;;;;;6053838;23;20369;-61
2023/07/25 08:27:18;;;;;;;18.48;4.55;;;;;;;;;;6060355;23;20029;-61
2023/07/25 08:30:32;;;;;;;23.30;5.03;;;;;;;;;;6060749;23;20061;-61
2023/07/25 08:33:27;;;;;;;16.05;4.45;;;;;;;;;;6057756;23;20033;-64
2023/07/25 08:36:21;;;;;;;19.65;4.63;;;;;;;;;;6059340;23;20472;-63
2023/07/25 08:39:09;;;;;;;14.55;4.53;;;;;;;;;;6059073;23;20273;-63
2023/07/25 08:42:09;;;;;;;16.95;4.32;;;;;;;;;;6060177;23;20333;-63
2023/07/25 08:44:54;;;;;;;17.45;4.68;;;;;;;;;;6059726;23;20536;-63
2023/07/25 08:47:50;;;;;;;12.88;3.97;;;;;;;;;;6059158;23;20026;-68
2023/07/25 08:50:37;;;;;;;18.67;4.00;;;;;;;;;;6060130;23;20070;-68
2023/07/25 08:53:32;;;;;;;13.75;4.25;;;;;;;;;;6058469;23;20019;-67
2023/07/25 08:56:19;;;;;;;20.75;4.57;;;;;;;;;;6058721;23;20034;-59
2023/07/25 08:59:14;;;;;;;13.60;4.10;;;;;;;;;;6058633;23;20035;-56
2023/07/25 09:02:02;;;;;;;16.05;4.07;;;;;;;;;;6058465;23;20022;-58
2023/07/25 09:05:02;;;;;;;15.00;4.20;;;;;;;;;;6058462;23;20581;-58
2023/07/25 09:07:49;;;;;;;16.55;3.75;;;;;;;;;;6058867;23;20034;-56
2023/07/25 09:10:45;;;;;;;13.88;3.78;;;;;;;;;;6061259;23;20027;-57
2023/07/25 09:13:32;;;;;;;13.82;4.25;;;;;;;;;;6062185;23;20097;-55
2023/07/25 09:16:25;;;;;;;17.15;3.55;;;;;;;;;;6063044;23;20030;-59
2023/07/25 09:19:13;;;;;;;17.42;4.07;;;;;;;;;;6062390;23;20070;-60
2023/07/25 09:22:25;;;;;;;14.43;3.35;;;;;;;;;;6062486;23;20499;-60
2023/07/25 09:25:19;;;;;;;14.98;4.07;;;;;;;;;;6061973;23;20023;-71
2023/07/25 09:28:06;;;;;;;13.38;3.80;;;;;;;;;;6062472;23;20019;-66
2023/07/25 09:31:04;;;;;;;17.15;4.03;;;;;;;;;;6062449;23;20023;-66
2023/07/25 09:33:52;;;;;;;10.40;2.78;;;;;;;;;;6060853;23;20488;-65
2023/07/25 09:36:47;;;;;;;12.85;3.45;;;;;;;;;;6061433;23;20027;-66
2023/07/25 09:39:34;;;;;;;18.33;3.67;;;;;;;;;;6062206;23;20078;-65
2023/07/25 09:42:39;;;;;;;15.77;3.45;;;;;;;;;;6062545;23;20038;-65
2023/07/25 09:45:36;;;;;;;15.00;3.42;;;;;;;;;;6062454;23;20090;-59
2023/07/25 09:48:32;;;;;;;15.20;3.60;;;;;;;;;;6060564;23;20023;-59
2023/07/25 09:51:19;;;;;;;13.38;3.15;;;;;;;;;;6061308;23;20031;-60
2023/07/25 09:54:12;;;;;;;12.48;3.30;;;;;;;;;;6060086;23;20030;-63
2023/07/25 09:57:00;;;;;;;9.02;3.17;;;;;;;;;;6059721;23;20027;-60
2023/07/25 09:59:54;;;;;;;20.83;3.83;;;;;;;;;;6059402;23;20409;-59
2023/07/25 10:02:41;;;;;;;13.93;3.83;;;;;;;;;;6057832;23;20138;-59
2023/07/25 10:05:44;;;;;;;15.40;3.72;;;;;;;;;;6056635;23;20061;-60
2023/07/25 10:08:45;;;;;;;13.23;3.42;;;;;;;;;;6060192;23;20022;-58
2023/07/25 10:11:40;;;;;;;12.00;3.30;;;;;;;;;;6060111;23;20023;-63
2023/07/25 10:14:27;;;;;;;10.82;3.38;;;;;;;;;;6059736;23;20534;-63
2023/07/25 10:17:20;;;;;;;13.02;3.00;;;;;;;;;;6059654;23;20026;-63
2023/07/25 10:20:08;;;;;;;14.68;3.05;;;;;;;;;;6061586;23;20106;-63
2023/07/25 10:23:11;;;;;;;20.58;3.83;;;;;;;;;;6060732;23;20406;-54
2023/07/25 10:26:14;;;;;;;13.80;3.33;;;;;;;;;;6058292;23;20090;-59
2023/07/25 10:29:28;;;;;;;15.65;4.20;;;;;;;;;;6059022;23;20023;-59
2023/07/25 10:32:37;;;;;;;16.23;3.50;;;;;;;;;;6061801;23;20019;-59
2023/07/25 10:35:49;;;;;;;16.20;3.53;;;;;;;;;;6058242;23;20026;-59
2023/07/25 10:38:42;;;;;;;21.15;4.35;;;;;;;;;;6060073;23;20548;-59
2023/07/25 10:41:34;;;;;;;15.18;3.60;;;;;;;;;;6060201;23;20023;-54
2023/07/25 10:44:36;;;;;;;20.38;4.50;;;;;;;;;;6060404;23;20029;-54
2023/07/25 10:47:10;;;;;;;;;;;;;;;;;;6060111;23;20030;-52
2023/07/25 10:49:54;;;;;;;17.08;3.80;;;;;;;;;;6059372;23;19977;-50
2023/07/25 10:52:44;;;;;;;11.73;2.80;;;;;;;;;;6059240;23;20477;-63
2023/07/25 10:55:12;;;;;;;12.50;3.05;;;;;;;;;;6059249;23;20082;-70
2023/07/25 10:58:15;;;;;;;13.50;3.50;;;;;;;;;;6059775;23;20511;-70
2023/07/25 11:00:45;;;;;;;14.70;3.10;;;;;;;;;;6035171;23;20091;-70
2023/07/25 11:03:27;;;;;;;15.80;3.65;;;;;;;;;;6057979;23;20385;-70
2023/07/25 11:06:15;;;;;;;14.38;3.88;;;;;;;;;;6059061;23;20027;-69
2023/07/25 11:08:49;;;;;;;18.30;3.63;;;;;;;;;;6060320;23;20246;-55
2023/07/25 11:11:17;;;;;;;12.95;3.13;;;;;;;;;;6058334;23;20372;-57
2023/07/25 11:13:51;;;;;;;10.93;3.20;;;;;;;;;;6058815;23;20026;-57
2023/07/25 11:16:21;;;;;;;11.88;3.05;;;;;;;;;;6060735;23;20075;-56
2023/07/25 11:18:49;;;;;;;13.07;3.40;;;;;;;;;;6059534;23;20082;-54
2023/07/25 11:21:25;;;;;;;13.23;3.13;;;;;;;;;;6059212;23;20018;-63
2023/07/25 11:24:02;;;;;;;12.45;3.30;;;;;;;;;;6059600;23;20026;-64
2023/07/25 11:26:37;;;;;;;13.40;3.17;;;;;;;;;;6059001;23;20031;-64
2023/07/25 11:29:05;;;;;;;17.40;3.22;;;;;;;;;;6059753;23;20026;-64
2023/07/25 11:31:36;;;;;;;11.15;3.22;;;;;;;;;;6059673;23;20022;-64
2023/07/25 11:34:10;;;;;;;11.38;3.35;;;;;;;;;;6059595;23;20258;-64
2023/07/25 11:36:38;;;;;;;14.65;3.28;;;;;;;;;;6058539;23;20033;-64
2023/07/25 11:39:19;;;;;;;16.65;3.67;;;;;;;;;;6059776;23;20531;-63
2023/07/25 11:41:47;;;;;;;13.23;2.75;;;;;;;;;;6058736;23;20031;-64
2023/07/25 11:44:21;;;;;;;18.98;3.65;;;;;;;;;;6059303;23;20367;-63
2023/07/25 11:46:48;;;;;;;;;;;;;;;;;;6060468;23;20023;-60
2023/07/25 11:49:16;;;;;;;11.55;3.10;;;;;;;;;;6059235;23;19922;-59
2023/07/25 11:52:07;;;;;;;15.10;2.95;;;;;;;;;;6060490;23;20102;-55
2023/07/25 11:54:35;;;;;;;9.82;2.80;;;;;;;;;;6059031;23;20465;-54
2023/07/25 11:57:10;;;;;;;11.38;2.65;;;;;;;;;;6057497;23;20094;-54
2023/07/25 11:59:41;;;;;;;14.43;3.45;;;;;;;;;;6059140;23;20389;-53
2023/07/25 12:02:14;;;;;;;11.45;3.22;;;;;;;;;;6058780;23;20174;-51
2023/07/25 12:04:43;;;;;;;11.10;2.97;;;;;;;;;;6058085;23;20042;-51
2023/07/25 12:07:18;;;;;;;11.68;3.08;;;;;;;;;;6061620;23;20019;-60
2023/07/25 12:09:49;;;;;;;9.88;2.75;;;;;;;;;;6056257;23;20110;-60
2023/07/25 12:12:17;;;;;;;16.95;3.75;;;;;;;;;;6061086;23;20232;-60
2023/07/25 12:14:55;;;;;;;14.75;3.60;;;;;;;;;;6060563;23;20109;-60
2023/07/25 12:17:22;;;;;;;11.65;3.08;;;;;;;;;;6058676;23;20022;-60
2023/07/25 12:19:57;;;;;;;18.30;3.70;;;;;;;;;;6058906;23;20031;-57
2023/07/25 12:22:24;;;;;;;15.77;3.72;;;;;;;;;;6059865;23;20050;-55
2023/07/25 12:24:51;;;;;;;15.07;3.78;;;;;;;;;;6058887;23;20477;-57
2023/07/25 12:27:26;;;;;;;17.98;3.40;;;;;;;;;;6059267;23;20330;-58
2023/07/25 12:29:53;;;;;;;15.27;3.83;;;;;;;;;;6058619;23;20046;-57
2023/07/25 12:32:27;;;;;;;16.08;3.17;;;;;;;;;;6059974;23;20030;-55
2023/07/25 12:35:01;;;;;;;16.25;3.47;;;;;;;;;;6058590;23;20419;-69
2023/07/25 12:37:35;;;;;;;16.20;3.30;;;;;;;;;;6058946;23;20114;-69
2023/07/25 12:40:03;;;;;;;15.60;3.40;;;;;;;;;;6059891;23;20026;-69
2023/07/25 12:42:30;;;;;;;15.65;3.63;;;;;;;;;;6063756;23;20094;-67
2023/07/25 12:45:05;;;;;;;10.07;3.08;;;;;;;;;;6062738;23;20395;-59
2023/07/25 12:47:36;;;;;;;11.77;3.00;;;;;;;;;;6055064;23;20077;-62
2023/07/25 12:50:12;;;;;;;12.80;3.30;;;;;;;;;;6061985;23;20038;-62
2023/07/25 12:52:39;;;;;;;13.10;3.50;;;;;;;;;;6059843;23;20023;-62
2023/07/25 12:55:08;;;;;;;14.18;3.00;;;;;;;;;;6060793;23;20037;-62
2023/07/25 12:57:42;;;;;;;12.68;3.72;;;;;;;;;;6049133;23;20039;-62
2023/07/25 13:00:09;;;;;;;11.75;3.55;;;;;;;;;;6057378;23;20087;-62
2023/07/25 13:02:43;;;;;;;11.05;2.85;;;;;;;;;;6060413;23;20528;-51
2023/07/25 13:05:10;;;;;;;;;;;;;;;;;;6059507;23;20027;-55
2023/07/25 13:07:44;;;;;;;17.23;3.45;;;;;;;;;;6060493;23;19922;-54
2023/07/25 13:10:18;;;;;;;16.45;3.78;;;;;;;;;;6061281;23;20083;-54
2023/07/25 13:12:46;;;;;;;13.25;3.15;;;;;;;;;;6061293;23;20030;-59
2023/07/25 13:15:20;;;;;;;9.77;3.08;;;;;;;;;;6060324;23;20035;-55
2023/07/25 13:17:47;;;;;;;12.25;3.85;;;;;;;;;;6059937;23;20019;-55
2023/07/25 13:20:14;;;;;;;15.70;3.30;;;;;;;;;;6059779;23;20027;-55
2023/07/25 13:22:49;;;;;;;15.68;3.33;;;;;;;;;;6060333;23;20074;-55
2023/07/25 13:25:16;;;;;;;20.17;3.55;;;;;;;;;;6061444;23;20027;-53
2023/07/25 13:27:49;;;;;;;14.68;3.28;;;;;;;;;;6058349;23;20030;-54
2023/07/25 13:30:17;;;;;;;15.30;3.53;;;;;;;;;;6058803;23;20070;-54
2023/07/25 13:32:44;;;;;;;13.90;2.95;;;;;;;;;;6061361;23;20031;-60
2023/07/25 13:35:18;;;;;;;10.88;3.10;;;;;;;;;;6060029;23;20102;-60
2023/07/25 13:37:46;;;;;;;12.63;3.67;;;;;;;;;;6058716;23;20030;-60
2023/07/25 13:40:20;;;;;;;12.65;3.20;;;;;;;;;;6060263;23;20053;-60
2023/07/25 13:42:47;;;;;;;12.20;3.17;;;;;;;;;;6058656;23;20018;-71
2023/07/25 13:45:14;;;;;;;16.05;3.47;;;;;;;;;;6059522;23;20030;-56
2023/07/25 13:47:50;;;;;;;11.93;2.83;;;;;;;;;;6059593;23;20391;-57
2023/07/25 13:50:17;;;;;;;16.88;3.67;;;;;;;;;;6061525;23;20019;-57
2023/07/25 13:53:02;;;;;;;11.45;3.42;;;;;;;;;;6058059;23;20484;-57
2023/07/25 13:55:30;;;;;;;8.43;2.58;;;;;;;;;;6057360;23;20019;-57
2023/07/25 13:58:04;;;;;;;10.35;3.08;;;;;;;;;;6059485;23;20031;-57
2023/07/25 14:00:48;;;;;;;15.88;2.78;;;;;;;;;;6060957;23;20078;-71
2023/07/25 14:03:23;;;;;;;9.52;2.53;;;;;;;;;;6061184;23;20019;-71
2023/07/25 14:05:57;;;;;;;12.68;2.70;;;;;;;;;;6058585;23;20267;-69
2023/07/25 14:08:33;;;;;;;15.85;2.95;;;;;;;;;;6058659;23;20027;-70
2023/07/25 14:11:00;;;;;;;11.52;2.92;;;;;;;;;;6060024;23;20031;-60
2023/07/25 14:13:28;;;;;;;14.35;2.88;;;;;;;;;;6057671;23;20797;-56
2023/07/25 14:16:02;;;;;;;11.00;2.55;;;;;;;;;;6057658;23;20074;-55
2023/07/25 14:18:29;;;;;;;15.32;2.42;;;;;;;;;;6058965;23;20031;-50
2023/07/25 14:21:04;;;;;;;11.35;2.80;;;;;;;;;;6058477;23;20030;-52
2023/07/25 14:23:32;;;;;;;;;;;;;;;;;;6058754;23;20027;-55
2023/07/25 14:25:59;;;;;;;12.13;2.80;;;;;;;;;;6058637;23;19925;-54
2023/07/25 14:28:33;;;;;;;12.30;2.63;;;;;;;;;;6060203;23;20098;-64
2023/07/25 14:31:01;;;;;;;13.45;3.17;;;;;;;;;;6057505;23;20102;-63
2023/07/25 14:33:35;;;;;;;15.48;3.13;;;;;;;;;;6059928;23;20101;-64
2023/07/25 14:36:02;;;;;;;10.77;2.30;;;;;;;;;;6058377;23;20026;-64
2023/07/25 14:38:30;;;;;;;13.00;2.33;;;;;;;;;;6059978;23;20070;-64
2023/07/25 14:41:04;;;;;;;11.00;2.00;;;;;;;;;;6059264;23;20071;-60
2023/07/25 14:43:32;;;;;;;8.73;2.03;;;;;;;;;;6060350;23;20095;-60
2023/07/25 14:46:06;;;;;;;11.20;2.22;;;;;;;;;;6057506;23;20030;-60
2023/07/25 14:48:33;;;;;;;10.55;1.98;;;;;;;;;;6060353;23;20031;-60
2023/07/25 14:51:00;;;;;;;14.27;1.75;;;;;;;;;;6060105;23;20082;-60
2023/07/25 14:53:35;;;;;;;8.02;2.00;;;;;;;;;;6058973;23;20093;-60
2023/07/25 14:56:02;;;;;;;;;;;;;;;;;;6060745;23;20023;-55
2023/07/25 14:58:29;;;;;;;13.80;2.33;;;;;;;;;;6059853;23;20305;-52
2023/07/25 15:01:08;;;;;;;7.25;2.15;;;;;;;;;;6059618;23;20046;-54
2023/07/25 15:03:35;;;;;;;;;;;;;;;;;;6060525;23;20480;-54
2023/07/25 15:06:15;;;;;;;7.43;2.47;;;;;;;;;;6058902;23;19917;-57
2023/07/25 15:08:43;;;;;;;11.05;2.33;;;;;;;;;;6057615;23;20026;-58
2023/07/25 15:11:17;;;;;;;7.43;2.08;;;;;;;;;;6060419;23;20065;-56
2023/07/25 15:13:45;;;;;;;9.70;2.28;;;;;;;;;;6058513;23;20473;-56
2023/07/25 15:16:13;;;;;;;6.15;1.70;;;;;;;;;;6060871;23;20027;-54
2023/07/25 15:18:47;;;;;;;8.63;2.00;;;;;;;;;;6058050;23;20073;-54
2023/07/25 15:21:14;;;;;;;24.80;2.88;;;;;;;;;;6061213;23;20026;-51
2023/07/25 15:23:48;;;;;;;10.02;2.88;;;;;;;;;;6058084;23;20026;-55
2023/07/25 15:26:15;;;;;;;9.95;2.45;;;;;;;;;;6060049;23;20687;-59
2023/07/25 15:28:49;;;;;;;12.65;2.78;;;;;;;;;;6055880;23;20026;-60
2023/07/25 15:31:16;;;;;;;9.25;2.10;;;;;;;;;;6055730;23;20090;-59
2023/07/25 15:33:43;;;;;;;11.52;2.38;;;;;;;;;;6058225;23;20026;-60
2023/07/25 15:36:18;;;;;;;6.97;2.30;;;;;;;;;;6058290;23;20038;-60
2023/07/25 15:38:45;;;;;;;11.80;2.28;;;;;;;;;;6057970;23;20123;-58
2023/07/25 15:41:19;;;;;;;10.38;2.28;;;;;;;;;;6060241;23;20091;-57
2023/07/25 15:43:46;;;;;;;8.63;2.15;;;;;;;;;;6058969;23;20022;-58
2023/07/25 15:46:13;;;;;;;8.35;1.92;;;;;;;;;;6057913;23;20030;-58
2023/07/25 15:48:48;;;;;;;13.85;2.83;;;;;;;;;;6053276;23;20089;-58